Impacts TAF Board INFO
FOR SITUATIONAL AWARENESS. NOT TO BE USED FOR FLIGHT PLANNING PURPOSES.
IDs:

KSFO - San Francisco Intl, CA, US

Issued at 0320 UTC 22 Sep 2017
Updated at 0436 UTC 22 Sep 2017
Potential Impact None Slight Moderate High
Time0356Z 22/05Z 22/06Z 22/07Z 22/08Z 22/09Z 22/10Z 22/11Z 22/12Z 22/13Z 22/14Z 22/15Z 22/16Z 22/17Z>>
Type OBS PRVL PRVL PRVL PRVL PRVL PRVL PRVL PRVL PRVL
  [TEMP]  
PRVL
  [TEMP]  
PRVL
  [TEMP]  
PRVL
  [TEMP]  
PRVL
VIS 10 >6 >6 >6 >6 >6 >6 >6 >6 >6 >6 >6 >6 >6
CIG -- -- -- -- -- -- -- -- -- --
  [30]  
--
  [30]  
--
  [30]  
--
  [30]  
--
Cover FEW FEW FEW FEW FEW FEW FEW FEW FEW SCT
  [BKN]  
SCT
  [BKN]  
SCT
  [BKN]  
SCT
  [BKN]  
SCT
FltCat VFR VFR VFR VFR VFR VFR VFR VFR VFR VFR
  [MVFR]  
VFR
  [MVFR]  
VFR
  [MVFR]  
VFR
  [MVFR]  
VFR
WX -- -- -- -- -- -- -- -- -- --
  [--]  
--
  [--]  
--
  [--]  
--
  [--]  
--
WDir 270 270 270 270 270 270 270 270 270 260
[260]
260
[260]
260
[260]
260
[260]
260
WSpd 22 17 13 13 13 13 13 13 13 7
  [7]  
7
  [7]  
7
  [7]  
7
  [7]  
7
WGst 29 24 -- -- -- -- -- -- -- --
  [--]  
--
  [--]  
--
  [--]  
--
  [--]  
--

Raw TAF
KSFO 220320Z 2203/2306 27022G29KT P6SM FEW020 SCT200
  FM220400 27017G24KT P6SM FEW020
  FM220600 27013KT P6SM FEW015 FEW030
  FM221300 26007KT P6SM FEW015 FEW025 SCT035
  TEMPO 2213/2217 SCT022 BKN030
  FM221800 29007KT P6SM FEW035
  FM222200 28015KT P6SM SKC
  FM230400 27008KT P6SM SKC


Raw METAR
KSFO 220356Z 27022G29KT 10SM FEW200 16/09 A2990 RMK AO2 PK WND 28032/0316 SLP125 T01560094
KSFO 220256Z 26022G29KT 10SM SCT200 16/09 A2989 RMK AO2 PK WND 26030/0235 SLP121 T01560089 50001
KSFO 220156Z 26022G29KT 10SM FEW020 FEW027 SCT200 16/09 A2990 RMK AO2 PK WND 27036/0113 SLP123 T01610094

METAR Board
Radar Display
Forecast Discussion

FOR SITUATIONAL AWARENESS. NOT TO BE USED FOR FLIGHT PLANNING PURPOSES.